Terminal Aerodrome Forecast
Issued by NWS

Home | Current Version | Previous Version | Text Only | Print | Product List | Glossary On
Versions: 1 2 3 4 5 6 7 8 9 10 11 12 13 14 15 16
332
FTUS46 KSEW 201121
TAFHQM
TAF
KHQM 201121Z 2012/2112 05007KT P6SM OVC040
     FM202100 32008KT 5SM -RA BR OVC025
     FM210200 27005KT P6SM -SHRA BKN015 OVC025=

USA.gov is the U.S. government's official web portal to all federal, state and local government web resources and services.